Time;durP1;ratioP1;P1;durP2;ratioP2;P2;SDS_P1;SDS_P2;PMS_P1;PMS_P2;Temp;Humidity;BMP_temperature;BMP_pressure;BME280_temperature;BME280_humidity;BME280_pressure;Samples;Min_cycle;Max_cycle;Signal;HPM_P1;HPM_P2
2022/08/04 00:00:12;;;;;;;2.07;1.87;;;27.00;39.10;;;;;;20744;6837;117905;-86
2022/08/04 00:02:55;;;;;;;3.00;2.30;;;26.40;39.80;;;;;;20743;6837;117282;-86
2022/08/04 00:05:28;;;;;;;2.00;1.90;;;26.00;40.10;;;;;;20730;6837;117442;-85
2022/08/04 00:08:00;;;;;;;2.10;1.90;;;26.30;39.70;;;;;;20359;6837;282277;-85
2022/08/04 00:10:26;;;;;;;2.23;2.00;;;26.20;40.00;;;;;;20737;6837;117342;-86
2022/08/04 00:12:51;;;;;;;2.00;1.90;;;26.20;40.10;;;;;;20747;6837;119626;-86
2022/08/04 00:15:17;;;;;;;1.90;1.80;;;26.00;40.30;;;;;;20527;6837;279974;-86
2022/08/04 00:17:59;;;;;;;1.90;1.80;;;26.10;40.30;;;;;;20552;6835;337009;-86
2022/08/04 00:20:25;;;;;;;2.17;2.07;;;26.40;40.00;;;;;;20551;6836;290159;-86
2022/08/04 00:22:52;;;;;;;1.97;1.87;;;26.70;39.60;;;;;;20744;6836;117620;-86
2022/08/04 00:25:17;;;;;;;2.00;1.90;;;26.50;39.70;;;;;;20526;6836;278062;-85
2022/08/04 00:27:45;;;;;;;2.00;1.90;;;26.50;40.00;;;;;;20538;6836;304440;-86
2022/08/04 00:30:10;;;;;;;2.30;2.10;;;26.70;39.50;;;;;;20531;6836;307872;-90
2022/08/04 00:32:35;;;;;;;2.15;1.95;;;26.80;39.30;;;;;;20540;6836;295571;-86
2022/08/04 00:35:02;;;;;;;2.10;2.00;;;26.70;39.40;;;;;;20749;6836;117292;-86
2022/08/04 00:37:27;;;;;;;4.80;2.20;;;26.60;39.30;;;;;;20722;6836;117891;-86
2022/08/04 00:39:54;;;;;;;1.63;1.63;;;26.00;40.40;;;;;;20743;6836;118019;-90
2022/08/04 00:42:36;;;;;;;1.80;1.70;;;26.00;40.40;;;;;;20746;6836;118857;-86
2022/08/04 00:45:21;;;;;;;3.58;1.95;;;25.80;40.90;;;;;;20530;6836;336738;-86
2022/08/04 00:48:08;;;;;;;2.10;2.00;;;26.00;41.00;;;;;;19922;6836;278324;-86
2022/08/04 00:51:00;;;;;;;2.20;1.80;;;26.30;41.00;;;;;;20715;6836;117118;-86
2022/08/04 00:53:39;;;;;;;2.17;2.07;;;25.70;41.00;;;;;;20732;6836;117684;-87
2022/08/04 00:56:39;;;;;;;2.30;1.90;;;25.80;41.10;;;;;;20503;6837;307937;-87
2022/08/04 00:59:15;;;;;;;2.70;2.33;;;25.70;41.30;;;;;;20730;6837;121117;-85
2022/08/04 01:01:52;;;;;;;1.93;1.83;;;25.40;41.60;;;;;;20167;6837;117599;-86
2022/08/04 01:04:26;;;;;;;1.95;1.85;;;25.40;42.30;;;;;;20407;6837;337153;-85
2022/08/04 01:07:12;;;;;;;2.00;1.90;;;25.70;41.50;;;;;;20785;6837;116255;-86
2022/08/04 01:09:49;;;;;;;1.93;1.80;;;25.60;41.40;;;;;;20785;6837;122573;-86
2022/08/04 01:12:31;;;;;;;1.70;1.60;;;25.40;41.60;;;;;;20761;6837;116847;-85
2022/08/04 01:15:08;;;;;;;6.50;1.90;;;25.20;41.90;;;;;;20771;6837;117895;-85
2022/08/04 01:17:56;;;;;;;3.12;2.20;;;25.00;42.10;;;;;;20575;6837;293832;-85
2022/08/04 01:20:22;;;;;;;1.90;1.80;;;25.30;41.30;;;;;;20792;6837;117559;-86
2022/08/04 01:23:07;;;;;;;2.03;1.92;;;25.30;41.30;;;;;;20581;6837;336159;-85
2022/08/04 01:25:56;;;;;;;1.93;1.80;;;25.50;41.40;;;;;;20759;6837;116846;-87
2022/08/04 01:28:41;;;;;;;2.07;1.97;;;25.40;41.40;;;;;;20534;6837;307025;-85
2022/08/04 01:31:06;;;;;;;2.20;2.10;;;25.60;41.00;;;;;;20737;6835;127979;-86
2022/08/04 01:33:32;;;;;;;2.03;1.93;;;25.50;41.00;;;;;;20762;6836;116683;-86
2022/08/04 01:35:59;;;;;;;2.20;2.10;;;25.30;41.50;;;;;;20522;6836;307719;-86
2022/08/04 01:38:34;;;;;;;2.40;2.30;;;25.40;41.80;;;;;;20784;6836;117096;-85
2022/08/04 01:40:59;;;;;;;2.30;2.20;;;25.40;41.70;;;;;;20579;6836;308014;-86
2022/08/04 01:43:26;;;;;;;2.10;1.90;;;25.50;41.70;;;;;;20774;6836;117344;-86
2022/08/04 01:46:00;;;;;;;2.45;2.25;;;25.40;41.80;;;;;;20533;6836;324288;-86
2022/08/04 01:48:25;;;;;;;1.93;1.83;;;25.50;42.80;;;;;;20687;6836;120989;-85
2022/08/04 01:50:51;;;;;;;2.00;1.90;;;25.40;42.40;;;;;;20565;6836;307539;-85
2022/08/04 01:53:18;;;;;;;2.22;2.10;;;25.50;43.20;;;;;;20538;6836;277141;-86
2022/08/04 01:55:44;;;;;;;2.23;2.13;;;25.80;42.90;;;;;;20784;6836;117307;-86
2022/08/04 01:58:10;;;;;;;2.40;2.23;;;25.60;42.60;;;;;;20739;6836;117606;-86
2022/08/04 02:00:36;;;;;;;2.45;2.30;;;25.30;43.00;;;;;;20531;6836;337132;-86
2022/08/04 02:03:04;;;;;;;2.40;2.20;;;25.40;43.30;;;;;;20723;6836;117015;-86
2022/08/04 02:05:29;;;;;;;2.33;2.23;;;25.30;43.30;;;;;;20723;6836;121025;-86
2022/08/04 02:08:25;;;;;;;2.83;2.60;;;25.00;43.70;;;;;;20537;6837;308546;-86
2022/08/04 02:10:53;;;;;;;2.73;2.63;;;25.10;44.40;;;;;;19492;7181;321060;-87
2022/08/04 02:13:20;;;;;;;3.08;2.87;;;25.40;44.50;;;;;;19968;6844;278153;-86
2022/08/04 02:15:45;;;;;;;2.80;2.70;;;25.60;44.30;;;;;;20701;6844;117693;-86
2022/08/04 02:18:24;;;;;;;3.30;2.80;;;25.40;44.30;;;;;;20495;6844;281567;-87
2022/08/04 02:20:50;;;;;;;3.30;3.00;;;25.50;44.70;;;;;;20494;6844;307689;-86
2022/08/04 02:23:19;;;;;;;2.83;2.73;;;25.50;44.70;;;;;;20442;6844;306786;-87
2022/08/04 02:25:45;;;;;;;2.73;2.57;;;25.60;44.60;;;;;;20532;6844;119068;-86
2022/08/04 02:28:23;;;;;;;2.73;2.60;;;25.30;44.70;;;;;;20496;6844;310173;-86
2022/08/04 02:30:49;;;;;;;2.70;2.60;;;25.30;45.00;;;;;;20716;6844;118425;-86
2022/08/04 02:33:14;;;;;;;2.63;2.43;;;25.00;45.10;;;;;;20681;6844;118297;-86
2022/08/04 02:35:40;;;;;;;2.70;2.60;;;24.70;45.50;;;;;;20489;6844;292646;-86
2022/08/04 02:38:32;;;;;;;2.43;2.33;;;24.80;45.90;;;;;;20705;6844;118147;-86
2022/08/04 02:40:58;;;;;;;3.07;2.70;;;24.70;45.70;;;;;;20732;6842;117585;-86
2022/08/04 02:43:23;;;;;;;2.53;2.33;;;24.40;46.00;;;;;;20694;6843;129066;-86
2022/08/04 02:45:49;;;;;;;2.75;2.55;;;24.20;46.20;;;;;;20500;6843;308467;-86
2022/08/04 02:48:14;;;;;;;2.87;2.77;;;24.40;46.40;;;;;;20704;6844;120229;-86
2022/08/04 02:50:40;;;;;;;2.90;2.60;;;24.40;46.10;;;;;;20530;6844;308145;-86
2022/08/04 02:53:06;;;;;;;2.80;2.70;;;24.60;45.70;;;;;;20538;6844;320268;-86
2022/08/04 02:55:32;;;;;;;2.70;2.60;;;24.90;45.20;;;;;;20630;6844;118084;-86
2022/08/04 02:57:58;;;;;;;2.40;2.30;;;24.80;45.20;;;;;;20757;6844;117183;-86
2022/08/04 03:00:23;;;;;;;2.70;2.60;;;24.50;46.00;;;;;;20773;6844;117922;-86
2022/08/04 03:02:49;;;;;;;2.60;2.40;;;24.20;45.80;;;;;;20789;6844;117689;-89
2022/08/04 03:05:17;;;;;;;3.08;2.87;;;24.10;46.00;;;;;;20539;6844;281025;-87
2022/08/04 03:07:53;;;;;;;2.80;2.70;;;24.30;46.10;;;;;;20580;6844;277843;-87
2022/08/04 03:10:46;;;;;;;3.27;2.63;;;24.70;45.30;;;;;;20538;6844;282284;-86
2022/08/04 03:13:37;;;;;;;2.40;2.30;;;25.00;44.80;;;;;;20734;6844;146088;-84
2022/08/04 03:16:24;;;;;;;2.93;2.47;;;24.80;44.80;;;;;;20537;6844;283579;-85
2022/08/04 03:18:52;;;;;;;2.53;2.43;;;24.80;44.80;;;;;;20506;6844;304503;-85
2022/08/04 03:21:39;;;;;;;2.23;2.13;;;24.80;44.50;;;;;;20622;6844;120696;-85
2022/08/04 03:24:21;;;;;;;2.27;2.17;;;24.70;44.40;;;;;;20741;6844;117685;-85
2022/08/04 03:27:06;;;;;;;2.50;2.30;;;24.30;45.00;;;;;;20523;6844;313202;-85
2022/08/04 03:29:54;;;;;;;2.60;2.50;;;24.50;44.90;;;;;;20516;6844;308483;-86
2022/08/04 03:32:56;;;;;;;2.60;2.40;;;24.80;44.70;;;;;;20509;6844;312727;-86
2022/08/04 03:36:01;;;;;;;2.33;2.20;;;25.00;44.20;;;;;;20467;6844;313214;-86
2022/08/04 03:38:54;;;;;;;2.60;2.50;;;25.10;44.30;;;;;;20719;6844;117766;-85
2022/08/04 03:41:53;;;;;;;2.60;2.40;;;24.70;44.80;;;;;;20502;6844;279363;-87
2022/08/04 03:44:38;;;;;;;2.97;2.40;;;24.70;45.90;;;;;;20695;6844;117245;-89
2022/08/04 03:47:27;;;;;;;2.80;2.60;;;24.50;46.10;;;;;;20727;6844;118605;-85
2022/08/04 03:50:13;;;;;;;2.50;2.40;;;24.10;46.50;;;;;;20727;6844;117419;-90
2022/08/04 03:53:08;;;;;;;2.67;2.50;;;23.80;46.80;;;;;;20734;6842;118316;-87
2022/08/04 03:56:14;;;;;;;2.70;2.60;;;23.60;47.20;;;;;;20732;6843;121205;-87
2022/08/04 03:59:16;;;;;;;3.40;2.57;;;23.40;47.50;;;;;;20731;6843;120141;-88
2022/08/04 04:02:04;;;;;;;2.75;2.60;;;23.20;47.80;;;;;;20436;6844;286529;-88
2022/08/04 04:04:28;;;;;;;2.70;2.60;;;24.00;47.60;;;;;;20489;6844;339886;-89
2022/08/04 04:07:26;;;;;;;2.87;2.60;;;24.00;47.60;;;;;;20666;6844;118258;-89
2022/08/04 04:10:15;;;;;;;2.80;2.70;;;23.90;47.50;;;;;;20690;6844;118286;-87
2022/08/04 04:12:52;;;;;;;2.77;2.67;;;23.60;47.80;;;;;;20696;6844;118314;-88
2022/08/04 04:15:26;;;;;;;2.97;2.87;;;23.40;48.20;;;;;;20492;6844;311794;-86
2022/08/04 04:18:15;;;;;;;2.90;2.63;;;23.60;48.40;;;;;;20291;6844;117383;-86
2022/08/04 04:21:08;;;;;;;3.33;2.90;;;23.30;49.10;;;;;;20725;6844;119293;-85
2022/08/04 04:23:56;;;;;;;3.00;2.80;;;23.30;48.40;;;;;;20499;6844;298896;-86
2022/08/04 04:26:48;;;;;;;3.20;3.00;;;23.50;48.50;;;;;;20715;6844;116679;-86
2022/08/04 04:29:37;;;;;;;3.10;2.70;;;23.50;48.30;;;;;;20708;6844;118833;-86
2022/08/04 04:32:23;;;;;;;2.75;2.55;;;23.50;49.10;;;;;;20521;6844;312216;-87
2022/08/04 04:35:11;;;;;;;3.33;3.12;;;23.50;48.50;;;;;;20513;6844;300348;-86
2022/08/04 04:38:00;;;;;;;2.77;2.60;;;23.90;48.60;;;;;;20736;6844;119439;-86
2022/08/04 04:40:36;;;;;;;2.75;2.60;;;24.00;48.10;;;;;;20517;6844;308428;-85
2022/08/04 04:43:21;;;;;;;2.80;2.70;;;24.00;47.80;;;;;;19869;6844;308464;-86
2022/08/04 04:45:48;;;;;;;2.70;2.60;;;24.20;47.50;;;;;;20705;6844;117347;-88
2022/08/04 04:48:26;;;;;;;3.08;2.87;;;24.20;47.50;;;;;;20500;6844;316169;-86
2022/08/04 04:51:05;;;;;;;3.00;2.37;;;24.30;47.70;;;;;;20701;6844;118681;-88
2022/08/04 04:53:44;;;;;;;2.73;2.53;;;24.20;47.60;;;;;;20711;6844;118544;-89
2022/08/04 04:56:39;;;;;;;3.00;2.80;;;23.90;47.90;;;;;;20489;6844;279346;-86
2022/08/04 04:59:05;;;;;;;2.83;2.62;;;24.10;48.00;;;;;;20499;6844;308459;-87
2022/08/04 05:01:58;;;;;;;2.70;2.50;;;24.20;47.60;;;;;;20572;6844;117824;-88
2022/08/04 05:04:50;;;;;;;2.80;2.70;;;24.00;48.20;;;;;;20721;6842;121114;-86
2022/08/04 05:07:49;;;;;;;3.20;3.00;;;23.90;48.10;;;;;;20708;6843;117489;-86
2022/08/04 05:10:39;;;;;;;3.30;3.10;;;23.70;48.30;;;;;;20696;6843;119003;-85
2022/08/04 05:13:29;;;;;;;3.10;2.90;;;23.60;48.40;;;;;;20699;6844;118052;-86
2022/08/04 05:15:54;;;;;;;3.20;3.10;;;23.50;48.60;;;;;;20517;6844;284264;-89
2022/08/04 05:18:20;;;;;;;3.37;3.10;;;23.90;48.40;;;;;;20514;6844;309693;-88
2022/08/04 05:20:45;;;;;;;3.80;3.20;;;24.30;47.80;;;;;;20754;6844;116472;-90
2022/08/04 05:23:14;;;;;;;3.53;3.23;;;24.30;47.70;;;;;;20696;6844;118151;-87
2022/08/04 05:25:39;;;;;;;3.13;2.93;;;24.10;47.80;;;;;;20729;6844;118714;-93
2022/08/04 05:28:05;;;;;;;3.60;3.30;;;23.90;48.00;;;;;;20504;6844;308335;-88
2022/08/04 05:30:31;;;;;;;3.67;3.40;;;24.20;48.30;;;;;;20503;6844;311956;-88
2022/08/04 05:33:02;;;;;;;3.60;3.40;;;24.50;47.50;;;;;;20720;6844;117312;-90
2022/08/04 05:35:34;;;;;;;3.10;2.90;;;24.30;47.50;;;;;;20697;6844;117487;-88
2022/08/04 05:38:00;;;;;;;3.60;3.30;;;24.20;47.90;;;;;;20727;6844;118467;-91
2022/08/04 05:40:26;;;;;;;3.80;3.42;;;24.20;47.90;;;;;;20510;6844;336926;-87
2022/08/04 05:42:51;;;;;;;3.43;3.23;;;24.40;47.70;;;;;;20513;6844;278939;-88
2022/08/04 05:45:17;;;;;;;3.50;3.20;;;24.80;47.20;;;;;;20705;6844;118439;-91
2022/08/04 05:47:42;;;;;;;3.70;3.40;;;24.80;47.20;;;;;;20514;6844;278646;-88
2022/08/04 05:50:08;;;;;;;3.80;3.60;;;24.90;46.90;;;;;;20514;6844;311959;-89
2022/08/04 05:52:33;;;;;;;3.63;3.33;;;25.20;46.40;;;;;;20725;6844;117239;-87
2022/08/04 05:54:59;;;;;;;3.67;3.40;;;25.10;46.60;;;;;;20500;6844;308949;-88
2022/08/04 05:57:24;;;;;;;3.53;3.33;;;25.20;46.80;;;;;;20482;6844;430810;-88
2022/08/04 05:59:50;;;;;;;3.57;3.30;;;25.50;46.70;;;;;;20727;6844;117647;-88
2022/08/04 06:02:16;;;;;;;3.63;3.30;;;25.40;46.70;;;;;;20516;6844;279017;-89
2022/08/04 06:04:42;;;;;;;3.37;3.17;;;25.50;46.60;;;;;;20515;6844;307678;-88
2022/08/04 06:07:10;;;;;;;3.60;3.30;;;25.80;46.30;;;;;;20482;6844;329825;-88
2022/08/04 06:09:33;;;;;;;3.28;3.08;;;26.00;46.10;;;;;;20510;6844;341747;-86
2022/08/04 06:11:59;;;;;;;3.20;3.00;;;26.20;46.50;;;;;;20722;6844;117167;-86
2022/08/04 06:14:25;;;;;;;3.62;3.25;;;26.00;46.60;;;;;;20511;6844;306895;-86
2022/08/04 06:16:50;;;;;;;3.50;3.20;;;26.10;46.20;;;;;;20567;6842;329139;-87
2022/08/04 06:19:16;;;;;;;3.78;3.30;;;26.30;46.20;;;;;;20723;6843;141085;-91
2022/08/04 06:21:41;;;;;;;5.73;3.60;;;26.20;46.20;;;;;;20754;6843;121104;-90
2022/08/04 06:24:09;;;;;;;5.23;3.07;;;26.00;46.60;;;;;;20750;6844;117455;-93
2022/08/04 06:26:33;;;;;;;3.62;3.20;;;25.80;47.10;;;;;;20494;6844;306180;-93
2022/08/04 06:28:59;;;;;;;3.50;3.20;;;26.00;46.70;;;;;;20730;6844;117655;-91
2022/08/04 06:32:11;;;;;;;;;;;;;;;;;;;;;
2022/08/04 06:33:58;;;;;;;3.50;3.20;;;26.20;46.20;;;;;;20455;6844;117204;-93
2022/08/04 06:36:24;;;;;;;3.77;3.47;;;26.30;46.00;;;;;;20528;6844;278695;-91
2022/08/04 06:38:49;;;;;;;3.93;3.50;;;26.60;45.40;;;;;;20530;6844;289554;-94
2022/08/04 06:41:15;;;;;;;4.75;3.60;;;27.00;44.30;;;;;;20482;6844;307576;-92
2022/08/04 06:43:40;;;;;;;3.67;3.30;;;27.50;43.20;;;;;;20539;6844;312083;-91
2022/08/04 06:46:06;;;;;;;6.00;3.75;;;28.20;42.70;;;;;;20578;6844;335772;-92
2022/08/04 06:48:34;;;;;;;6.83;3.30;;;28.90;41.40;;;;;;20577;6844;306764;-94
2022/08/04 06:51:01;;;;;;;3.83;3.57;;;29.50;40.60;;;;;;20810;6844;66899;-96
2022/08/04 06:53:39;;;;;;;4.07;3.20;;;29.70;40.90;;;;;;20791;6844;116485;-93
2022/08/04 06:55:54;;;;;;;4.53;3.27;;;29.80;41.00;;;;;;20718;6844;118095;-91
2022/08/04 06:58:20;;;;;;;3.23;3.03;;;30.00;40.70;;;;;;20779;6844;117125;-93
2022/08/04 07:00:47;;;;;;;3.40;3.00;;;30.10;40.20;;;;;;20780;6844;117549;-90
2022/08/04 07:03:13;;;;;;;4.37;3.20;;;30.30;39.90;;;;;;20765;6844;118463;-92
2022/08/04 07:05:38;;;;;;;4.13;3.27;;;30.40;39.20;;;;;;20763;6844;119825;-91
2022/08/04 07:08:04;;;;;;;3.53;3.23;;;30.50;38.70;;;;;;20792;6844;118507;-92
2022/08/04 07:10:29;;;;;;;3.37;3.17;;;30.60;38.20;;;;;;20764;6844;119355;-88
2022/08/04 07:12:58;;;;;;;3.47;3.17;;;30.70;37.80;;;;;;20735;6844;118357;-93
2022/08/04 07:15:24;;;;;;;3.37;3.10;;;31.10;35.80;;;;;;20487;6844;307666;-90
2022/08/04 07:17:51;;;;;;;3.85;2.85;;;31.00;36.20;;;;;;20520;6844;339594;-91
2022/08/04 07:20:18;;;;;;;3.43;3.13;;;31.50;35.90;;;;;;20717;6844;116370;-92
2022/08/04 07:22:45;;;;;;;3.23;3.03;;;31.40;36.50;;;;;;20687;6844;117419;-91
2022/08/04 07:25:13;;;;;;;3.10;2.90;;;31.40;36.50;;;;;;20680;6844;117572;-91
2022/08/04 07:27:40;;;;;;;3.10;2.90;;;31.30;36.70;;;;;;20726;6842;117165;-91
2022/08/04 07:30:07;;;;;;;4.90;3.07;;;31.20;36.90;;;;;;20728;6843;118109;-91
2022/08/04 07:32:32;;;;;;;3.50;2.90;;;31.20;37.00;;;;;;20515;6843;308388;-92
2022/08/04 07:34:58;;;;;;;2.90;2.70;;;31.50;36.50;;;;;;20727;6844;117646;-93
2022/08/04 07:37:23;;;;;;;3.50;2.80;;;31.70;35.90;;;;;;20715;6844;118533;-91
2022/08/04 07:39:49;;;;;;;3.00;2.80;;;31.70;36.10;;;;;;20723;6844;117344;-92
2022/08/04 07:42:15;;;;;;;2.70;2.60;;;31.70;36.20;;;;;;20731;6844;117542;-91
2022/08/04 07:44:40;;;;;;;2.60;2.50;;;31.70;36.10;;;;;;20715;6844;118375;-91
2022/08/04 07:47:06;;;;;;;3.27;2.53;;;31.70;35.90;;;;;;20515;6844;282265;-90
2022/08/04 07:49:31;;;;;;;2.67;2.47;;;32.10;35.20;;;;;;20498;6844;290201;-91
2022/08/04 07:51:58;;;;;;;2.70;2.50;;;32.70;32.90;;;;;;20518;6844;289765;-92
2022/08/04 07:54:25;;;;;;;2.53;2.37;;;33.20;33.00;;;;;;20729;6844;121486;-92
2022/08/04 07:56:51;;;;;;;2.47;2.33;;;33.30;33.10;;;;;;20725;6844;118416;-90
2022/08/04 07:59:19;;;;;;;2.50;2.40;;;33.20;33.10;;;;;;20495;6844;312233;-94
2022/08/04 08:01:46;;;;;;;2.70;2.50;;;33.40;32.70;;;;;;20522;6844;282231;-92
2022/08/04 08:04:12;;;;;;;2.60;2.40;;;33.90;32.10;;;;;;20726;6844;117328;-88
2022/08/04 08:06:39;;;;;;;2.60;2.40;;;33.80;32.30;;;;;;20725;6844;117742;-90
2022/08/04 08:09:13;;;;;;;2.30;2.10;;;33.70;32.30;;;;;;20509;6844;309430;-90
2022/08/04 08:11:39;;;;;;;2.67;2.40;;;34.00;31.30;;;;;;20509;6844;324885;-90
2022/08/04 08:14:07;;;;;;;2.65;2.45;;;34.70;30.20;;;;;;20521;6844;278107;-90
2022/08/04 08:16:33;;;;;;;2.67;2.47;;;34.80;30.30;;;;;;20715;6844;122233;-90
2022/08/04 08:18:59;;;;;;;2.40;2.20;;;34.70;30.10;;;;;;20727;6844;118486;-93
2022/08/04 08:21:26;;;;;;;3.07;2.10;;;34.70;29.70;;;;;;20495;6844;307613;-90
2022/08/04 08:23:51;;;;;;;2.17;1.97;;;34.70;29.60;;;;;;20735;6844;116353;-90
2022/08/04 08:26:17;;;;;;;2.40;2.20;;;34.80;30.00;;;;;;20529;6844;279510;-91
2022/08/04 08:28:43;;;;;;;2.63;2.30;;;35.30;29.70;;;;;;20513;6844;312201;-91
2022/08/04 08:31:09;;;;;;;4.25;2.50;;;35.30;29.70;;;;;;20506;6844;337669;-89
2022/08/04 08:33:34;;;;;;;3.17;2.40;;;35.60;30.60;;;;;;20506;6844;313997;-90
2022/08/04 08:36:03;;;;;;;3.22;2.47;;;35.90;29.40;;;;;;20721;6844;117862;-90
2022/08/04 08:38:41;;;;;;;3.03;2.10;;;35.80;29.40;;;;;;20715;6844;117895;-90
2022/08/04 08:41:47;;;;;;;2.27;2.17;;;35.60;29.80;;;;;;20691;6843;118125;-90
2022/08/04 08:44:52;;;;;;;2.30;2.20;;;35.40;29.70;;;;;;20729;6843;118556;-90
2022/08/04 08:47:24;;;;;;;3.87;2.00;;;35.20;29.80;;;;;;20716;6844;118457;-92
2022/08/04 08:50:10;;;;;;;2.77;2.30;;;35.10;29.90;;;;;;20511;6844;306168;-90
2022/08/04 08:53:12;;;;;;;3.23;2.17;;;35.50;28.90;;;;;;20698;6844;118857;-92
2022/08/04 08:56:04;;;;;;;2.40;2.20;;;35.70;29.00;;;;;;20737;6844;118518;-90
2022/08/04 08:58:49;;;;;;;2.10;2.00;;;35.70;29.70;;;;;;20727;6844;117818;-90
2022/08/04 09:01:18;;;;;;;2.25;1.95;;;35.70;29.80;;;;;;20410;6844;336238;-90
2022/08/04 09:04:09;;;;;;;2.23;1.97;;;36.10;28.70;;;;;;20697;6844;117884;-89
2022/08/04 09:06:41;;;;;;;2.20;2.10;;;36.30;28.80;;;;;;20511;6844;339802;-88
2022/08/04 09:09:23;;;;;;;2.70;2.12;;;36.70;28.10;;;;;;20489;6844;287185;-90
2022/08/04 09:12:16;;;;;;;2.40;2.20;;;37.20;28.20;;;;;;20511;6844;307987;-90
2022/08/04 09:15:15;;;;;;;2.77;2.20;;;37.60;28.30;;;;;;20727;6844;118055;-89
2022/08/04 09:18:02;;;;;;;2.10;2.00;;;37.60;28.00;;;;;;20481;6844;309201;-89
2022/08/04 09:20:46;;;;;;;2.10;1.90;;;37.80;27.70;;;;;;20518;6844;307652;-87
2022/08/04 09:23:32;;;;;;;2.30;2.10;;;38.10;27.10;;;;;;20485;6844;295403;-89
2022/08/04 09:26:38;;;;;;;2.30;2.10;;;38.30;26.80;;;;;;20525;6844;307609;-88
2022/08/04 09:29:26;;;;;;;2.65;2.12;;;38.50;25.90;;;;;;20517;6844;307811;-90
2022/08/04 09:32:01;;;;;;;3.03;2.12;;;38.60;25.90;;;;;;20709;6844;117504;-89
2022/08/04 09:34:53;;;;;;;2.80;2.27;;;38.40;26.30;;;;;;20717;6844;121245;-91
2022/08/04 09:37:25;;;;;;;2.20;2.00;;;38.10;26.30;;;;;;20705;6844;118825;-89
2022/08/04 09:39:58;;;;;;;4.00;2.20;;;37.70;26.90;;;;;;20705;6844;117711;-90
2022/08/04 09:42:31;;;;;;;2.50;2.30;;;37.60;27.30;;;;;;20697;6844;117834;-89
2022/08/04 09:45:06;;;;;;;2.30;2.20;;;37.60;26.80;;;;;;20715;6844;117739;-89
2022/08/04 09:47:38;;;;;;;3.70;2.15;;;37.50;26.60;;;;;;20531;6844;343505;-89
2022/08/04 09:50:11;;;;;;;4.30;2.10;;;37.90;26.60;;;;;;20567;6844;277213;-91
2022/08/04 09:52:49;;;;;;;2.23;1.97;;;38.30;26.10;;;;;;20789;6843;116154;-91
2022/08/04 09:55:37;;;;;;;2.00;1.90;;;38.40;25.50;;;;;;20501;6843;307401;-88
2022/08/04 09:58:06;;;;;;;2.43;2.13;;;38.50;25.50;;;;;;20771;6844;116151;-88
2022/08/04 10:00:44;;;;;;;2.00;1.90;;;38.50;25.50;;;;;;20473;6844;307635;-89
2022/08/04 10:03:10;;;;;;;2.07;1.97;;;38.60;25.60;;;;;;20718;6844;118267;-88
2022/08/04 10:05:55;;;;;;;2.20;2.10;;;38.60;24.90;;;;;;20707;6844;117838;-88
2022/08/04 10:08:34;;;;;;;2.50;2.30;;;38.50;24.80;;;;;;20731;6844;118399;-91
2022/08/04 10:11:13;;;;;;;2.07;2.07;;;38.30;24.70;;;;;;20723;6844;117236;-91
2022/08/04 10:14:08;;;;;;;2.23;2.13;;;38.20;24.60;;;;;;20705;6844;117324;-90
2022/08/04 10:16:50;;;;;;;2.27;2.10;;;38.00;24.40;;;;;;20725;6844;119483;-89
2022/08/04 10:19:26;;;;;;;3.33;1.90;;;37.80;24.80;;;;;;20689;6844;119408;-86
2022/08/04 10:21:57;;;;;;;2.00;1.90;;;37.80;24.50;;;;;;20511;6844;336677;-85
2022/08/04 10:24:28;;;;;;;1.97;1.87;;;38.10;23.80;;;;;;20703;6844;118449;-87
2022/08/04 10:26:52;;;;;;;1.90;1.80;;;38.10;23.80;;;;;;20713;6844;117775;-87
2022/08/04 10:29:24;;;;;;;2.80;2.00;;;38.10;23.90;;;;;;20683;6844;117453;-87
2022/08/04 10:31:53;;;;;;;2.10;1.90;;;38.00;24.40;;;;;;20765;6844;67354;-87
2022/08/04 10:34:21;;;;;;;4.10;1.83;;;38.00;24.00;;;;;;20589;6844;306607;-87
2022/08/04 10:37:00;;;;;;;1.80;1.60;;;38.30;22.90;;;;;;20606;6844;310710;-85
2022/08/04 10:42:44;;;;;;;1.80;1.70;;;38.90;22.60;;;;;;20744;6844;117234;-87
2022/08/04 10:45:07;;;;;;;1.93;1.83;;;38.50;22.00;;;;;;20719;6844;117272;-86
2022/08/04 10:47:33;;;;;;;1.50;1.50;;;38.50;22.00;;;;;;20294;6847;279300;-87
2022/08/04 10:50:01;;;;;;;1.63;1.53;;;38.70;22.20;;;;;;20480;6847;313779;-90
2022/08/04 10:52:30;;;;;;;2.70;1.60;;;39.00;21.80;;;;;;20499;6847;311137;-87
2022/08/04 10:55:05;;;;;;;1.40;1.40;;;39.30;21.10;;;;;;20485;6847;310993;-89
2022/08/04 10:57:42;;;;;;;2.10;1.70;;;39.60;21.20;;;;;;20473;6852;283572;-89
2022/08/04 11:00:08;;;;;;;1.67;1.60;;;39.70;21.90;;;;;;20670;6852;120194;-89
2022/08/04 11:03:02;;;;;;;1.60;1.50;;;39.60;21.10;;;;;;20488;6850;278182;-89
2022/08/04 11:05:34;;;;;;;1.83;1.48;;;39.40;21.20;;;;;;20410;6851;118663;-90
2022/08/04 11:08:03;;;;;;;1.60;1.50;;;39.40;20.90;;;;;;20475;6851;307991;-89
2022/08/04 11:10:28;;;;;;;2.00;1.90;;;39.40;21.50;;;;;;20711;6851;118151;-89
2022/08/04 11:12:54;;;;;;;2.20;2.00;;;39.40;21.50;;;;;;20710;6851;117637;-87
2022/08/04 11:15:19;;;;;;;1.60;1.60;;;39.20;21.60;;;;;;20639;6851;127944;-89
2022/08/04 11:17:45;;;;;;;2.13;2.03;;;39.00;21.80;;;;;;20476;6851;308645;-88
2022/08/04 11:20:34;;;;;;;2.13;1.97;;;39.20;21.60;;;;;;20529;6851;121572;-88
2022/08/04 11:23:03;;;;;;;2.43;2.33;;;39.20;21.70;;;;;;20696;6852;117281;-87
2022/08/04 11:26:04;;;;;;;2.00;1.90;;;39.00;22.10;;;;;;20463;6852;308471;-88
2022/08/04 11:28:47;;;;;;;1.80;1.70;;;39.00;21.70;;;;;;20707;6852;117239;-87
2022/08/04 11:31:17;;;;;;;2.30;2.07;;;39.00;21.90;;;;;;20654;6852;117586;-88
2022/08/04 11:33:46;;;;;;;1.90;1.80;;;39.00;22.80;;;;;;20470;6852;302498;-88
2022/08/04 11:36:21;;;;;;;2.20;1.97;;;39.20;23.50;;;;;;20690;6852;117583;-88
2022/08/04 11:39:10;;;;;;;2.10;1.90;;;39.30;22.90;;;;;;20451;6852;339157;-87
2022/08/04 11:41:52;;;;;;;2.33;2.12;;;39.50;22.40;;;;;;20703;6852;118580;-87
2022/08/04 11:44:48;;;;;;;4.57;1.80;;;39.50;22.30;;;;;;20689;6852;118700;-88
2022/08/04 11:47:16;;;;;;;2.15;2.05;;;39.30;22.40;;;;;;20467;6852;341449;-87
2022/08/04 11:49:40;;;;;;;3.13;2.00;;;39.40;22.70;;;;;;19655;6852;118787;-88
2022/08/04 11:52:06;;;;;;;1.85;1.80;;;39.50;22.80;;;;;;20685;6852;120215;-87
2022/08/04 11:54:31;;;;;;;2.17;1.80;;;39.40;22.90;;;;;;20697;6852;121713;-87
2022/08/04 11:56:57;;;;;;;2.25;1.95;;;39.20;22.90;;;;;;20714;6852;117139;-87
2022/08/04 11:59:23;;;;;;;2.13;2.00;;;39.20;22.60;;;;;;20490;6852;309927;-87
2022/08/04 12:02:01;;;;;;;2.27;1.87;;;39.30;22.60;;;;;;20712;6852;117932;-87
2022/08/04 12:04:27;;;;;;;2.10;2.00;;;39.40;22.60;;;;;;20421;6852;316067;-88
2022/08/04 12:06:57;;;;;;;2.13;1.93;;;39.60;21.50;;;;;;20689;6852;117399;-87
2022/08/04 12:09:56;;;;;;;2.27;2.17;;;39.60;21.80;;;;;;20681;6852;117058;-87
2022/08/04 12:12:21;;;;;;;1.97;1.97;;;39.50;22.70;;;;;;20743;6852;117291;-87
2022/08/04 12:15:11;;;;;;;2.00;1.90;;;39.30;22.80;;;;;;20487;6850;309158;-87
2022/08/04 12:17:42;;;;;;;1.97;1.90;;;39.50;22.40;;;;;;20774;6851;117486;-87
2022/08/04 12:20:09;;;;;;;2.25;2.05;;;39.40;22.40;;;;;;20534;6851;333373;-87
2022/08/04 12:22:33;;;;;;;2.93;2.20;;;39.50;22.70;;;;;;20709;6851;119994;-87
2022/08/04 12:25:08;;;;;;;2.23;2.13;;;39.50;22.10;;;;;;20705;6851;118345;-88
2022/08/04 12:27:54;;;;;;;5.10;1.90;;;39.30;22.30;;;;;;20716;6851;117578;-86
2022/08/04 12:30:19;;;;;;;1.73;1.70;;;39.20;22.50;;;;;;20731;6851;117176;-86
2022/08/04 12:33:00;;;;;;;1.73;1.63;;;39.00;22.30;;;;;;20726;6851;118322;-86
2022/08/04 12:35:30;;;;;;;1.70;1.60;;;38.90;22.00;;;;;;20692;6852;117263;-86
2022/08/04 12:37:58;;;;;;;3.10;1.90;;;38.80;22.10;;;;;;19997;6852;118496;-87
2022/08/04 12:40:22;;;;;;;1.93;1.83;;;38.70;22.60;;;;;;20696;6852;117728;-87
2022/08/04 12:43:10;;;;;;;2.10;1.97;;;38.70;22.00;;;;;;20492;6852;278927;-87
2022/08/04 12:45:36;;;;;;;2.83;2.00;;;38.90;22.90;;;;;;20672;6852;67527;-87
2022/08/04 12:48:02;;;;;;;1.87;1.77;;;39.00;22.30;;;;;;20483;6852;299449;-88
2022/08/04 12:50:28;;;;;;;1.90;1.80;;;39.10;21.30;;;;;;20711;6852;120256;-88
2022/08/04 12:52:54;;;;;;;3.60;2.00;;;39.30;21.90;;;;;;20537;6852;310393;-88
2022/08/04 12:55:20;;;;;;;1.73;1.60;;;39.20;21.80;;;;;;20729;6852;117765;-87
2022/08/04 12:57:47;;;;;;;1.90;1.80;;;39.30;22.20;;;;;;20548;6852;310926;-89
2022/08/04 13:00:14;;;;;;;2.00;1.90;;;39.40;21.80;;;;;;20567;6852;277390;-87
2022/08/04 13:02:40;;;;;;;2.80;1.70;;;39.70;21.60;;;;;;20692;6852;117279;-87
2022/08/04 13:05:06;;;;;;;2.13;2.00;;;39.60;22.00;;;;;;20756;6852;119405;-87
2022/08/04 13:07:37;;;;;;;2.27;1.90;;;39.50;22.10;;;;;;20732;6852;120832;-88
2022/08/04 13:10:14;;;;;;;2.00;1.90;;;39.30;22.20;;;;;;20481;6852;279220;-88
2022/08/04 13:12:40;;;;;;;1.90;1.80;;;39.30;22.00;;;;;;20419;6852;307819;-87
2022/08/04 13:15:05;;;;;;;2.30;1.90;;;39.60;21.40;;;;;;20487;6852;278591;-87